Terminal Aerodrome Forecast
Issued by NWS Jackson, KY

Home | Current Version | Previous Version | Text Only | Print | Product List | Glossary On
Versions: 1 2 3 4 5 6 7 8 9 10 11 12 13 14 15 16 17
000
FTUS43 KJKL 211720
TAFJKL
TAF
KJKL 211720Z 2118/2218 31006KT 4SM BR OVC006
     FM212200 30006KT P6SM OVC015
     FM220600 29003KT P6SM FEW050
     FM220900 VRB03KT 1/2SM FG OVC002
     FM221200 28006KT P6SM FEW250=

USA.gov is the U.S. government's official web portal to all federal, state and local government web resources and services.